Terminal Aerodrome Forecast
Issued by NWS

Home | Current Version | Previous Version | Text Only | Print | Product List | Glossary On
Versions: 1 2 3 4 5 6 7 8 9 10 11 12 13 14 15 16 17 18 19 20 21 22 23 24 25
000
FTUS44 KOUN 080520
TAFLAW
TAF
KLAW 080520Z 0806/0906 36007KT P6SM BKN018
     FM080800 36007KT P6SM BKN008
     FM081600 18005KT P6SM BKN015
     FM081900 17007KT P6SM BKN025
     FM090000 15006KT P6SM SCT035=

USA.gov is the U.S. government's official web portal to all federal, state and local government web resources and services.